createdAt,value
2022-08-22T00:00:02.985Z,16.00
2022-08-22T00:01:03.018Z,16.00
2022-08-22T00:02:03.032Z,15.90
2022-08-22T00:03:06.060Z,16.10
2022-08-22T00:03:14.841Z,15.90
2022-08-22T00:04:03.005Z,15.90
2022-08-22T00:05:03.062Z,15.90
2022-08-22T00:06:03.185Z,15.90
2022-08-22T00:07:03.099Z,15.90
2022-08-22T00:08:03.107Z,15.90
2022-08-22T00:09:03.133Z,15.90
2022-08-22T00:10:03.294Z,15.90
2022-08-22T00:11:03.062Z,15.90
2022-08-22T00:12:03.095Z,15.90
2022-08-22T00:13:03.212Z,15.90
2022-08-22T00:14:03.140Z,15.90
2022-08-22T00:15:03.171Z,15.90
2022-08-22T00:16:03.161Z,15.90
2022-08-22T00:17:03.234Z,15.80
2022-08-22T00:18:05.637Z,15.80
2022-08-22T00:19:03.200Z,15.80
2022-08-22T00:20:03.256Z,15.80
2022-08-22T00:21:03.237Z,15.80
2022-08-22T00:22:03.369Z,15.80
2022-08-22T00:23:03.257Z,15.80
2022-08-22T00:24:03.287Z,15.80
2022-08-22T00:25:03.347Z,15.80
2022-08-22T00:26:03.321Z,15.80
2022-08-22T00:27:03.724Z,15.80
2022-08-22T00:28:02.746Z,15.70
2022-08-22T00:29:02.910Z,15.70
2022-08-22T00:30:03.003Z,15.70
2022-08-22T00:31:02.920Z,15.70
2022-08-22T00:32:03.009Z,15.70
2022-08-22T00:33:02.990Z,15.70
2022-08-22T00:34:02.950Z,15.70
2022-08-22T00:35:02.904Z,15.60
2022-08-22T00:36:02.932Z,15.60
2022-08-22T00:37:03.007Z,15.60
2022-08-22T00:38:03.083Z,15.60
2022-08-22T00:39:03.065Z,15.60
2022-08-22T00:40:03.289Z,15.60
2022-08-22T00:41:03.170Z,15.60
2022-08-22T00:42:03.229Z,15.60
2022-08-22T00:43:03.240Z,15.60
2022-08-22T00:44:03.292Z,15.60
2022-08-22T00:45:03.306Z,15.50
2022-08-22T00:46:03.415Z,15.50
2022-08-22T00:47:03.396Z,15.50
2022-08-22T00:48:03.518Z,15.50
2022-08-22T00:49:03.551Z,15.50
2022-08-22T00:50:03.477Z,15.50
2022-08-22T00:51:02.706Z,15.50
2022-08-22T00:52:02.677Z,15.50
2022-08-22T00:53:02.614Z,15.40
2022-08-22T00:54:03.553Z,15.40
2022-08-22T00:55:03.632Z,15.40
2022-08-22T00:56:03.604Z,15.40
2022-08-22T00:57:03.627Z,15.30
2022-08-22T00:58:03.563Z,15.30
2022-08-22T00:59:08.489Z,15.30
2022-08-22T01:00:02.661Z,15.30
2022-08-22T01:01:02.717Z,15.30
2022-08-22T01:02:02.671Z,15.30
2022-08-22T01:03:02.812Z,15.30
2022-08-22T01:04:02.842Z,15.30
2022-08-22T01:05:02.852Z,15.30
2022-08-22T01:06:02.831Z,15.30
2022-08-22T01:07:02.864Z,15.30
2022-08-22T01:08:02.824Z,15.30
2022-08-22T01:09:03.291Z,15.30
2022-08-22T01:10:03.355Z,15.30
2022-08-22T01:11:03.374Z,15.30
2022-08-22T01:12:03.409Z,15.30
2022-08-22T01:13:03.469Z,15.20
2022-08-22T01:14:03.527Z,15.20
2022-08-22T01:15:02.688Z,15.20
2022-08-22T01:16:02.666Z,15.20
2022-08-22T01:17:03.665Z,15.20
2022-08-22T01:18:02.808Z,15.20
2022-08-22T01:19:02.773Z,15.20
2022-08-22T01:20:02.797Z,15.20
2022-08-22T01:21:02.863Z,15.20
2022-08-22T01:22:02.820Z,15.10
2022-08-22T01:23:02.941Z,15.10
2022-08-22T01:24:02.972Z,15.10
2022-08-22T01:25:02.898Z,15.10
2022-08-22T01:26:02.901Z,15.10
2022-08-22T01:27:03.045Z,15.10
2022-08-22T01:28:03.029Z,15.10
2022-08-22T01:29:02.971Z,15.10
2022-08-22T01:30:03.093Z,15.00
2022-08-22T01:31:03.076Z,15.00
2022-08-22T01:32:03.047Z,15.00
2022-08-22T01:33:03.083Z,15.00
2022-08-22T01:34:03.155Z,15.00
2022-08-22T01:35:03.096Z,15.00
2022-08-22T01:36:03.308Z,15.00
2022-08-22T01:37:03.309Z,15.00
2022-08-22T01:38:03.299Z,15.00
2022-08-22T01:39:03.296Z,15.00
2022-08-22T01:40:03.455Z,15.00
2022-08-22T01:41:03.369Z,15.00
2022-08-22T01:42:03.247Z,15.00
2022-08-22T01:43:03.408Z,15.00
2022-08-22T01:44:03.491Z,15.00
2022-08-22T01:45:03.482Z,15.00
2022-08-22T01:46:03.422Z,14.90
2022-08-22T01:47:03.455Z,14.90
2022-08-22T01:48:03.555Z,14.90
2022-08-22T01:49:03.677Z,14.90
2022-08-22T01:50:03.625Z,14.90
2022-08-22T01:51:03.546Z,14.90
2022-08-22T01:52:03.526Z,14.90
2022-08-22T01:53:03.665Z,14.90
2022-08-22T01:54:03.597Z,14.90
2022-08-22T01:55:02.679Z,14.80
2022-08-22T01:56:02.746Z,14.80
2022-08-22T01:57:03.015Z,14.80
2022-08-22T01:58:02.903Z,14.80
2022-08-22T01:59:02.998Z,14.80
2022-08-22T02:00:03.013Z,14.80
2022-08-22T02:01:03.192Z,14.80
2022-08-22T02:02:03.130Z,14.80
2022-08-22T02:03:03.175Z,14.70
2022-08-22T02:04:03.299Z,14.70
2022-08-22T02:05:03.250Z,14.70
2022-08-22T02:06:03.067Z,14.70
2022-08-22T02:07:03.172Z,14.70
2022-08-22T02:08:03.358Z,14.70
2022-08-22T02:09:03.329Z,14.70
2022-08-22T02:10:03.382Z,14.70
2022-08-22T02:11:03.496Z,14.70
2022-08-22T02:12:03.552Z,14.70
2022-08-22T02:13:03.495Z,14.70
2022-08-22T02:14:03.580Z,14.60
2022-08-22T02:15:02.655Z,14.60
2022-08-22T02:16:02.774Z,14.60
2022-08-22T02:17:02.832Z,14.60
2022-08-22T02:18:02.828Z,14.60
2022-08-22T02:19:02.926Z,14.60
2022-08-22T02:20:03.013Z,14.60
2022-08-22T02:21:02.998Z,14.60
2022-08-22T02:22:03.039Z,14.60
2022-08-22T02:23:02.944Z,14.50
2022-08-22T02:24:02.921Z,14.50
2022-08-22T02:25:02.982Z,14.50
2022-08-22T02:26:02.999Z,14.50
2022-08-22T02:27:02.909Z,14.50
2022-08-22T02:28:02.988Z,14.50
2022-08-22T02:29:02.967Z,14.50
2022-08-22T02:30:03.010Z,14.50
2022-08-22T02:31:03.129Z,14.50
2022-08-22T02:32:03.106Z,14.40
2022-08-22T02:33:03.208Z,14.50
2022-08-22T02:34:03.176Z,14.50
2022-08-22T02:35:03.267Z,14.50
2022-08-22T02:36:03.322Z,14.40
2022-08-22T02:37:03.480Z,14.40
2022-08-22T02:38:03.508Z,14.40
2022-08-22T02:39:03.513Z,14.40
2022-08-22T02:40:02.698Z,14.40
2022-08-22T02:41:02.640Z,14.40
2022-08-22T02:42:02.708Z,14.40
2022-08-22T02:43:02.765Z,14.40
2022-08-22T02:44:02.927Z,14.40
2022-08-22T02:45:02.901Z,14.40
2022-08-22T02:46:02.959Z,14.40
2022-08-22T02:47:02.996Z,14.40
2022-08-22T02:48:03.022Z,14.40
2022-08-22T02:49:03.086Z,14.40
2022-08-22T02:50:03.126Z,14.40
2022-08-22T02:51:03.152Z,14.40
2022-08-22T02:52:03.144Z,14.40
2022-08-22T02:53:03.137Z,14.40
2022-08-22T02:54:03.164Z,14.40
2022-08-22T02:55:03.242Z,14.40
2022-08-22T02:56:03.348Z,14.40
2022-08-22T02:57:03.520Z,14.40
2022-08-22T02:58:03.453Z,14.40
2022-08-22T02:59:03.583Z,14.40
2022-08-22T03:00:03.624Z,14.30
2022-08-22T03:01:02.660Z,14.30
2022-08-22T03:02:02.645Z,14.30
2022-08-22T03:03:03.670Z,14.30
2022-08-22T03:04:02.627Z,14.30
2022-08-22T03:05:02.624Z,14.30
2022-08-22T03:06:02.690Z,14.30
2022-08-22T03:07:02.660Z,14.30
2022-08-22T03:08:02.750Z,14.30
2022-08-22T03:09:02.725Z,14.30
2022-08-22T03:10:02.687Z,14.30
2022-08-22T03:11:02.724Z,14.20
2022-08-22T03:12:02.779Z,14.20
2022-08-22T03:13:02.834Z,14.20
2022-08-22T03:14:02.941Z,14.20
2022-08-22T03:15:02.871Z,14.20
2022-08-22T03:16:02.912Z,14.20
2022-08-22T03:17:03.035Z,14.20
2022-08-22T03:18:03.205Z,14.20
2022-08-22T03:19:03.107Z,14.20
2022-08-22T03:20:03.240Z,14.20
2022-08-22T03:21:03.318Z,14.20
2022-08-22T03:22:03.313Z,14.20
2022-08-22T03:23:03.419Z,14.10
2022-08-22T03:24:03.479Z,14.10
2022-08-22T03:25:02.651Z,14.10
2022-08-22T03:26:04.184Z,14.10
2022-08-22T03:27:03.561Z,14.10
2022-08-22T03:28:03.581Z,14.10
2022-08-22T03:29:02.677Z,14.10
2022-08-22T03:30:02.755Z,14.10
2022-08-22T03:31:02.760Z,14.10
2022-08-22T03:32:02.825Z,14.10
2022-08-22T03:33:02.874Z,14.00
2022-08-22T03:34:02.909Z,14.00
2022-08-22T03:35:02.897Z,14.00
2022-08-22T03:36:02.855Z,14.00
2022-08-22T03:37:02.966Z,14.00
2022-08-22T03:38:03.112Z,14.00
2022-08-22T03:39:03.194Z,14.00
2022-08-22T03:40:03.269Z,14.00
2022-08-22T03:41:03.243Z,13.90
2022-08-22T03:42:03.274Z,13.90
2022-08-22T03:43:03.396Z,13.90
2022-08-22T03:44:03.507Z,13.90
2022-08-22T03:45:02.597Z,13.90
2022-08-22T03:46:02.606Z,13.90
2022-08-22T03:47:02.773Z,13.90
2022-08-22T03:48:02.721Z,13.80
2022-08-22T03:49:02.730Z,13.80
2022-08-22T03:50:02.795Z,13.80
2022-08-22T03:51:02.837Z,13.80
2022-08-22T03:52:02.855Z,13.80
2022-08-22T03:53:03.036Z,13.80
2022-08-22T03:54:03.124Z,13.80
2022-08-22T03:55:03.210Z,13.80
2022-08-22T03:56:03.318Z,13.80
2022-08-22T03:57:03.432Z,13.80
2022-08-22T03:58:03.513Z,13.80
2022-08-22T03:59:02.629Z,13.80
2022-08-22T04:00:02.637Z,13.80
2022-08-22T04:01:02.721Z,13.80
2022-08-22T04:02:02.721Z,13.80
2022-08-22T04:03:02.861Z,13.80
2022-08-22T04:04:02.856Z,13.80
2022-08-22T04:05:02.920Z,13.80
2022-08-22T04:06:03.059Z,13.80
2022-08-22T04:07:03.019Z,13.80
2022-08-22T04:08:03.045Z,13.80
2022-08-22T04:09:03.031Z,13.80
2022-08-22T04:10:03.011Z,13.80
2022-08-22T04:11:03.374Z,13.80
2022-08-22T04:12:03.279Z,13.80
2022-08-22T04:13:03.355Z,13.80
2022-08-22T04:14:03.342Z,13.80
2022-08-22T04:15:03.320Z,13.70
2022-08-22T04:16:03.388Z,13.70
2022-08-22T04:17:03.603Z,13.70
2022-08-22T04:18:02.748Z,13.70
2022-08-22T04:19:02.758Z,13.70
2022-08-22T04:20:02.850Z,13.70
2022-08-22T04:21:02.863Z,13.70
2022-08-22T04:22:03.044Z,13.70
2022-08-22T04:23:03.096Z,13.70
2022-08-22T04:24:03.077Z,13.70
2022-08-22T04:25:07.225Z,13.60
2022-08-22T04:26:08.275Z,13.60
2022-08-22T04:27:02.767Z,13.60
2022-08-22T04:28:02.756Z,13.60
2022-08-22T04:29:02.709Z,13.60
2022-08-22T04:30:02.725Z,13.60
2022-08-22T04:31:02.723Z,13.70
2022-08-22T04:32:02.785Z,13.70
2022-08-22T04:33:02.775Z,13.60
2022-08-22T04:34:02.732Z,13.60
2022-08-22T04:35:02.693Z,13.60
2022-08-22T04:36:02.659Z,13.60
2022-08-22T04:37:02.649Z,13.70
2022-08-22T04:38:02.754Z,13.70
2022-08-22T04:39:02.771Z,13.70
2022-08-22T04:40:02.826Z,13.70
2022-08-22T04:41:04.634Z,13.70
2022-08-22T04:42:16.249Z,13.70
2022-08-22T04:43:03.592Z,13.70
2022-08-22T04:44:02.938Z,13.70
2022-08-22T04:45:02.952Z,13.70
2022-08-22T04:46:02.948Z,13.70
2022-08-22T04:47:03.175Z,13.70
2022-08-22T04:48:03.128Z,13.70
2022-08-22T04:49:03.229Z,13.70
2022-08-22T04:50:03.336Z,13.70
2022-08-22T04:51:03.341Z,13.70
2022-08-22T04:52:03.401Z,13.80
2022-08-22T04:53:03.390Z,13.80
2022-08-22T04:54:03.531Z,13.80
2022-08-22T04:55:03.506Z,13.80
2022-08-22T04:56:06.750Z,13.80
2022-08-22T04:57:02.807Z,13.80
2022-08-22T04:58:02.869Z,13.90
2022-08-22T04:59:03.016Z,13.90
2022-08-22T05:00:02.972Z,14.00
2022-08-22T05:01:03.008Z,14.00
2022-08-22T05:02:03.038Z,14.10
2022-08-22T05:03:03.591Z,14.20
2022-08-22T05:04:03.554Z,14.30
2022-08-22T05:05:02.730Z,14.30
2022-08-22T05:06:02.753Z,14.40
2022-08-22T05:07:02.737Z,14.50
2022-08-22T05:08:02.780Z,14.60
2022-08-22T05:09:02.793Z,14.70
2022-08-22T05:10:09.231Z,14.80
2022-08-22T05:11:02.791Z,14.90
2022-08-22T05:12:02.864Z,15.00
2022-08-22T05:13:02.974Z,15.00
2022-08-22T05:14:03.005Z,15.10
2022-08-22T05:15:03.121Z,15.20
2022-08-22T05:16:03.141Z,15.30
2022-08-22T05:17:03.296Z,15.30
2022-08-22T05:18:03.239Z,15.40
2022-08-22T05:19:03.303Z,15.50
2022-08-22T05:20:03.310Z,15.60
2022-08-22T05:21:03.338Z,15.70
2022-08-22T05:22:03.427Z,15.70
2022-08-22T05:23:05.764Z,15.80
2022-08-22T05:24:02.708Z,15.90
2022-08-22T05:25:02.633Z,16.00
2022-08-22T05:26:02.782Z,16.10
2022-08-22T05:27:02.851Z,16.20
2022-08-22T05:28:02.852Z,16.20
2022-08-22T05:29:02.857Z,16.30
2022-08-22T05:30:03.032Z,16.50
2022-08-22T05:31:02.958Z,16.60
2022-08-22T05:32:02.928Z,16.70
2022-08-22T05:33:02.915Z,16.80
2022-08-22T05:34:02.877Z,16.90
2022-08-22T05:35:02.981Z,17.00
2022-08-22T05:36:03.238Z,17.20
2022-08-22T05:37:03.302Z,17.30
2022-08-22T05:38:03.457Z,17.40
2022-08-22T05:39:03.419Z,17.60
2022-08-22T05:40:03.530Z,17.70
2022-08-22T05:41:03.385Z,17.80
2022-08-22T05:42:03.420Z,18.00
2022-08-22T05:43:03.434Z,18.10
2022-08-22T05:44:03.476Z,18.30
2022-08-22T05:45:03.544Z,18.40
2022-08-22T05:46:03.591Z,18.50
2022-08-22T05:47:02.659Z,18.60
2022-08-22T05:48:02.718Z,18.70
2022-08-22T05:49:02.859Z,18.90
2022-08-22T05:50:02.951Z,19.00
2022-08-22T05:51:03.006Z,19.10
2022-08-22T05:52:02.966Z,19.30
2022-08-22T05:53:02.972Z,19.40
2022-08-22T05:54:03.068Z,19.50
2022-08-22T05:55:03.117Z,19.60
2022-08-22T05:56:03.158Z,19.70
2022-08-22T05:57:06.115Z,19.80
2022-08-22T05:58:03.316Z,19.90
2022-08-22T05:59:03.441Z,20.00
2022-08-22T06:00:03.512Z,20.10
2022-08-22T06:01:02.695Z,20.20
2022-08-22T06:02:02.787Z,20.20
2022-08-22T06:03:02.834Z,20.30
2022-08-22T06:04:02.858Z,20.30
2022-08-22T06:05:02.883Z,20.40
2022-08-22T06:06:03.029Z,20.40
2022-08-22T06:07:02.942Z,20.40
2022-08-22T06:08:02.992Z,20.50
2022-08-22T06:09:03.173Z,20.50
2022-08-22T06:10:03.107Z,20.60
2022-08-22T06:11:03.127Z,20.60
2022-08-22T06:12:03.219Z,20.60
2022-08-22T06:13:03.350Z,20.60
2022-08-22T06:14:03.418Z,20.70
2022-08-22T06:15:03.572Z,20.70
2022-08-22T06:16:03.637Z,20.70
2022-08-22T06:17:03.639Z,20.70
2022-08-22T06:18:02.643Z,20.80
2022-08-22T06:19:02.743Z,20.80
2022-08-22T06:20:02.856Z,20.90
2022-08-22T06:21:02.988Z,20.90
2022-08-22T06:22:02.966Z,21.00
2022-08-22T06:23:03.093Z,21.10
2022-08-22T06:24:03.121Z,21.10
2022-08-22T06:25:03.148Z,21.20
2022-08-22T06:26:03.257Z,21.30
2022-08-22T06:27:03.268Z,21.40
2022-08-22T06:28:03.348Z,21.50
2022-08-22T06:29:03.335Z,21.60
2022-08-22T06:30:04.050Z,21.60
2022-08-22T06:31:03.625Z,21.70
2022-08-22T06:32:03.585Z,21.80
2022-08-22T06:33:02.715Z,21.90
2022-08-22T06:34:02.773Z,22.00
2022-08-22T06:35:02.916Z,22.00
2022-08-22T06:36:02.837Z,22.10
2022-08-22T06:37:02.792Z,22.20
2022-08-22T06:38:02.992Z,22.30
2022-08-22T06:39:02.997Z,22.30
2022-08-22T06:40:03.063Z,22.40
2022-08-22T06:41:03.046Z,22.40
2022-08-22T06:42:03.129Z,22.50
2022-08-22T06:43:03.135Z,22.60
2022-08-22T06:44:03.273Z,22.60
2022-08-22T06:45:03.242Z,22.70
2022-08-22T06:46:03.315Z,22.70
2022-08-22T06:47:03.474Z,22.80
2022-08-22T06:48:03.760Z,22.80
2022-08-22T06:49:03.535Z,22.90
2022-08-22T06:50:03.581Z,23.00
2022-08-22T06:51:02.705Z,23.10
2022-08-22T06:52:02.846Z,23.10
2022-08-22T06:53:02.855Z,23.20
2022-08-22T06:54:02.863Z,23.30
2022-08-22T06:55:02.965Z,23.30
2022-08-22T06:56:03.139Z,23.30
2022-08-22T06:57:03.159Z,23.40
2022-08-22T06:58:03.095Z,23.40
2022-08-22T06:59:03.196Z,23.40
2022-08-22T07:00:03.155Z,23.40
2022-08-22T07:01:11.583Z,23.40
2022-08-22T07:02:03.243Z,23.40
2022-08-22T07:03:03.295Z,23.40
2022-08-22T07:04:03.361Z,23.40
2022-08-22T07:05:03.363Z,23.40
2022-08-22T07:06:03.501Z,23.40
2022-08-22T07:07:03.610Z,23.40
2022-08-22T07:08:03.632Z,23.40
2022-08-22T07:09:05.519Z,23.40
2022-08-22T07:10:02.791Z,23.50
2022-08-22T07:11:02.715Z,23.50
2022-08-22T07:12:02.769Z,23.50
2022-08-22T07:13:02.864Z,23.60
2022-08-22T07:14:02.889Z,23.60
2022-08-22T07:15:03.031Z,23.60
2022-08-22T07:16:03.108Z,23.70
2022-08-22T07:17:03.296Z,23.70
2022-08-22T07:18:03.411Z,23.70
2022-08-22T07:19:03.423Z,23.70
2022-08-22T07:20:03.519Z,23.70
2022-08-22T07:21:03.538Z,23.80
2022-08-22T07:22:02.645Z,23.80
2022-08-22T07:23:04.256Z,23.80
2022-08-22T07:24:03.316Z,23.80
2022-08-22T07:25:03.432Z,23.90
2022-08-22T07:26:03.432Z,23.90
2022-08-22T07:27:04.110Z,24.00
2022-08-22T07:28:03.806Z,24.00
2022-08-22T07:29:04.478Z,24.10
2022-08-22T07:30:03.952Z,24.10
2022-08-22T07:31:03.585Z,24.20
2022-08-22T07:32:03.579Z,24.20
2022-08-22T07:33:18.987Z,24.20
2022-08-22T07:34:02.702Z,24.20
2022-08-22T07:35:02.754Z,24.30
2022-08-22T07:36:02.914Z,24.30
2022-08-22T07:37:02.915Z,24.30
2022-08-22T07:38:02.915Z,24.30
2022-08-22T07:39:02.951Z,24.30
2022-08-22T07:40:02.975Z,24.40
2022-08-22T07:41:03.031Z,24.40
2022-08-22T07:42:03.017Z,24.40
2022-08-22T07:43:03.089Z,24.40
2022-08-22T07:44:03.071Z,24.50
2022-08-22T07:45:03.168Z,24.50
2022-08-22T07:46:03.249Z,24.50
2022-08-22T07:47:03.196Z,24.60
2022-08-22T07:48:03.350Z,24.60
2022-08-22T07:49:09.331Z,24.60
2022-08-22T07:50:03.406Z,24.60
2022-08-22T07:51:03.405Z,24.60
2022-08-22T07:52:03.519Z,24.50
2022-08-22T07:53:03.587Z,24.50
2022-08-22T07:54:03.574Z,24.50
2022-08-22T07:55:02.639Z,24.60
2022-08-22T07:56:02.752Z,24.60
2022-08-22T07:57:02.793Z,24.60
2022-08-22T07:58:04.139Z,24.70
2022-08-22T07:59:04.809Z,24.70
2022-08-22T08:00:02.779Z,24.80
2022-08-22T08:01:02.815Z,24.80
2022-08-22T08:02:02.867Z,24.90
2022-08-22T08:03:03.006Z,24.90
2022-08-22T08:04:03.093Z,25.00
2022-08-22T08:05:03.040Z,25.00
2022-08-22T08:06:03.157Z,25.00
2022-08-22T08:07:03.168Z,25.10
2022-08-22T08:08:03.206Z,25.10
2022-08-22T08:09:03.252Z,25.10
2022-08-22T08:10:03.311Z,25.20
2022-08-22T08:11:03.190Z,25.10
2022-08-22T08:12:03.112Z,25.10
2022-08-22T08:13:03.228Z,25.10
2022-08-22T08:14:03.253Z,25.10
2022-08-22T08:15:03.342Z,25.00
2022-08-22T08:16:03.516Z,25.00
2022-08-22T08:17:03.507Z,25.00
2022-08-22T08:18:03.545Z,25.00
2022-08-22T08:19:03.588Z,24.90
2022-08-22T08:20:02.615Z,24.90
2022-08-22T08:21:02.720Z,24.90
2022-08-22T08:22:02.749Z,24.80
2022-08-22T08:23:02.706Z,24.80
2022-08-22T08:24:02.827Z,24.70
2022-08-22T08:25:02.916Z,24.70
2022-08-22T08:26:02.957Z,24.70
2022-08-22T08:27:03.016Z,24.60
2022-08-22T08:28:02.996Z,24.60
2022-08-22T08:29:03.091Z,24.60
2022-08-22T08:30:03.140Z,24.60
2022-08-22T08:31:03.149Z,24.60
2022-08-22T08:32:03.512Z,24.60
2022-08-22T08:33:24.487Z,24.60
2022-08-22T08:34:03.624Z,24.60
2022-08-22T08:35:03.568Z,24.60
2022-08-22T08:36:03.838Z,24.60
2022-08-22T08:37:02.887Z,24.60
2022-08-22T08:38:02.972Z,24.70
2022-08-22T08:39:03.022Z,24.70
2022-08-22T08:40:03.027Z,24.70
2022-08-22T08:41:03.014Z,24.70
2022-08-22T08:42:02.906Z,24.70
2022-08-22T08:43:02.855Z,24.70
2022-08-22T08:44:02.866Z,24.60
2022-08-22T08:45:02.811Z,24.70
2022-08-22T08:46:02.893Z,24.60
2022-08-22T08:47:02.801Z,24.60
2022-08-22T08:48:02.841Z,24.60
2022-08-22T08:49:05.820Z,24.60
2022-08-22T08:50:03.107Z,24.60
2022-08-22T08:51:02.960Z,24.60
2022-08-22T08:52:03.045Z,24.60
2022-08-22T08:53:03.043Z,24.60
2022-08-22T08:54:03.076Z,24.50
2022-08-22T08:55:10.468Z,24.50
2022-08-22T08:56:03.130Z,24.50
2022-08-22T08:57:03.132Z,24.40
2022-08-22T08:58:03.306Z,24.40
2022-08-22T08:59:03.152Z,24.40
2022-08-22T09:00:03.125Z,24.40
2022-08-22T09:01:03.268Z,24.40
2022-08-22T09:02:03.222Z,24.40
2022-08-22T09:03:06.446Z,24.40
2022-08-22T09:04:03.250Z,24.40
2022-08-22T09:05:03.307Z,24.40
2022-08-22T09:06:03.323Z,24.40
2022-08-22T09:07:03.365Z,24.40
2022-08-22T09:08:03.373Z,24.30
2022-08-22T09:09:03.464Z,24.30
2022-08-22T09:10:03.514Z,24.30
2022-08-22T09:11:03.547Z,24.40
2022-08-22T09:12:02.662Z,24.40
2022-08-22T09:13:11.417Z,24.40
2022-08-22T09:14:03.198Z,24.50
2022-08-22T09:15:03.235Z,24.50
2022-08-22T09:17:03.487Z,24.50
2022-08-22T09:18:03.348Z,24.40
2022-08-22T09:19:03.406Z,24.40
2022-08-22T09:20:03.478Z,24.40
2022-08-22T09:21:03.594Z,24.40
2022-08-22T09:22:02.692Z,24.40
2022-08-22T09:23:02.765Z,24.40
2022-08-22T09:24:02.900Z,24.50
2022-08-22T09:25:05.993Z,24.50
2022-08-22T09:26:02.942Z,24.50
2022-08-22T09:27:03.058Z,24.50
2022-08-22T09:28:03.118Z,24.50
2022-08-22T09:29:03.237Z,24.50
2022-08-22T09:30:03.188Z,24.40
2022-08-22T09:31:03.317Z,24.40
2022-08-22T09:32:03.523Z,24.40
2022-08-22T09:33:03.629Z,24.40
2022-08-22T09:34:05.320Z,24.40
2022-08-22T09:35:02.763Z,24.40
2022-08-22T09:36:02.831Z,24.50
2022-08-22T09:37:02.809Z,24.50
2022-08-22T09:38:02.899Z,24.50
2022-08-22T09:39:02.889Z,24.50
2022-08-22T09:40:03.041Z,24.50
2022-08-22T09:41:03.129Z,24.40
2022-08-22T09:42:02.986Z,24.50
2022-08-22T09:43:03.217Z,24.50
2022-08-22T09:44:03.259Z,24.50
2022-08-22T09:45:03.321Z,24.50
2022-08-22T09:46:03.340Z,24.60
2022-08-22T09:47:03.475Z,24.60
2022-08-22T09:48:07.381Z,24.60
2022-08-22T09:49:05.508Z,24.60
2022-08-22T09:50:03.549Z,24.60
2022-08-22T09:51:19.957Z,24.70
2022-08-22T09:52:05.324Z,24.70
2022-08-22T09:53:03.586Z,24.80
2022-08-22T09:54:02.630Z,24.80
2022-08-22T09:55:02.675Z,24.80
2022-08-22T09:56:11.519Z,24.90
2022-08-22T09:57:02.880Z,24.90
2022-08-22T09:58:02.896Z,25.00
2022-08-22T09:59:03.038Z,25.00
2022-08-22T10:00:03.108Z,25.00
2022-08-22T10:01:03.173Z,25.00
2022-08-22T10:02:03.295Z,25.00
2022-08-22T10:03:03.259Z,25.00
2022-08-22T10:04:03.341Z,25.00
2022-08-22T10:05:03.932Z,25.00
2022-08-22T10:06:03.380Z,25.00
2022-08-22T10:07:03.431Z,25.00
2022-08-22T10:08:03.429Z,25.00
2022-08-22T10:09:03.436Z,25.00
2022-08-22T10:10:03.590Z,24.90
2022-08-22T10:11:03.582Z,24.90
2022-08-22T10:12:03.635Z,24.80
2022-08-22T10:13:03.616Z,24.80
2022-08-22T10:14:02.626Z,24.80
2022-08-22T10:15:02.780Z,24.80
2022-08-22T10:16:02.808Z,24.80
2022-08-22T10:17:02.853Z,24.80
2022-08-22T10:18:02.760Z,24.80
2022-08-22T10:19:02.932Z,24.70
2022-08-22T10:20:02.992Z,24.70
2022-08-22T10:21:02.954Z,24.60
2022-08-22T10:22:03.039Z,24.60
2022-08-22T10:23:03.266Z,24.60
2022-08-22T10:24:03.205Z,24.60
2022-08-22T10:25:03.183Z,24.60
2022-08-22T10:26:03.184Z,24.50
2022-08-22T10:27:03.400Z,24.50
2022-08-22T10:28:03.433Z,24.50
2022-08-22T10:29:03.485Z,24.50
2022-08-22T10:30:03.128Z,24.50
2022-08-22T10:31:03.258Z,24.60
2022-08-22T10:32:07.397Z,24.60
2022-08-22T10:33:03.456Z,24.60
2022-08-22T10:34:03.495Z,24.70
2022-08-22T10:35:03.461Z,24.70
2022-08-22T10:36:04.845Z,24.80
2022-08-22T10:37:02.684Z,24.80
2022-08-22T10:38:02.731Z,24.90
2022-08-22T10:39:04.445Z,24.90
2022-08-22T10:40:02.891Z,24.90
2022-08-22T10:41:02.887Z,25.00
2022-08-22T10:42:02.941Z,25.00
2022-08-22T10:43:02.978Z,25.10
2022-08-22T10:44:04.297Z,25.10
2022-08-22T10:45:03.321Z,25.00
2022-08-22T10:46:03.480Z,25.00
2022-08-22T10:47:03.372Z,25.00
2022-08-22T10:48:03.425Z,25.00
2022-08-22T10:49:05.861Z,25.00
2022-08-22T10:50:03.415Z,25.00
2022-08-22T10:51:03.427Z,25.00
2022-08-22T10:52:13.635Z,25.10
2022-08-22T10:53:03.503Z,25.10
2022-08-22T10:54:03.340Z,25.10
2022-08-22T10:55:05.810Z,25.10
2022-08-22T10:56:03.479Z,25.10
2022-08-22T10:57:02.661Z,25.20
2022-08-22T10:58:02.653Z,25.20
2022-08-22T10:59:02.788Z,25.30
2022-08-22T11:00:02.898Z,25.30
2022-08-22T11:01:37.278Z,25.30
2022-08-22T11:02:02.838Z,25.30
2022-08-22T11:03:02.819Z,25.30
2022-08-22T11:04:02.933Z,25.30
2022-08-22T11:05:02.920Z,25.30
2022-08-22T11:06:03.197Z,25.30
2022-08-22T11:07:03.222Z,25.30
2022-08-22T11:08:03.205Z,25.20
2022-08-22T11:09:03.190Z,25.20
2022-08-22T11:10:03.251Z,25.20
2022-08-22T11:11:03.373Z,25.20
2022-08-22T11:12:04.386Z,25.20
2022-08-22T11:13:03.430Z,25.20
2022-08-22T11:14:03.452Z,25.20
2022-08-22T11:15:03.459Z,25.20
2022-08-22T11:16:04.239Z,25.20
2022-08-22T11:17:02.733Z,25.20
2022-08-22T11:18:02.770Z,25.20
2022-08-22T11:19:14.795Z,25.20
2022-08-22T11:20:02.797Z,25.20
2022-08-22T11:21:02.848Z,25.30
2022-08-22T11:22:03.736Z,25.30
2022-08-22T11:23:02.889Z,25.30
2022-08-22T11:24:03.004Z,25.40
2022-08-22T11:25:04.555Z,25.40
2022-08-22T11:26:04.154Z,25.40
2022-08-22T11:27:03.234Z,25.50
2022-08-22T11:28:03.296Z,25.50
2022-08-22T11:29:13.886Z,25.50
2022-08-22T11:30:03.516Z,25.40
2022-08-22T11:31:03.411Z,25.40
2022-08-22T11:32:06.005Z,25.30
2022-08-22T11:33:03.581Z,25.30
2022-08-22T11:34:02.695Z,25.30
2022-08-22T11:35:02.749Z,25.20
2022-08-22T11:36:04.536Z,25.20
2022-08-22T11:37:02.773Z,25.10
2022-08-22T11:38:03.022Z,25.10
2022-08-22T11:39:02.819Z,25.10
2022-08-22T11:40:02.870Z,25.10
2022-08-22T11:41:02.933Z,25.10
2022-08-22T11:42:03.039Z,25.10
2022-08-22T11:43:03.676Z,25.00
2022-08-22T11:44:03.579Z,25.00
2022-08-22T11:45:03.280Z,25.00
2022-08-22T11:46:03.253Z,25.00
2022-08-22T11:47:03.285Z,25.00
2022-08-22T11:48:03.266Z,25.00
2022-08-22T11:49:03.398Z,25.00
2022-08-22T11:50:03.405Z,25.00
2022-08-22T11:51:03.403Z,24.90
2022-08-22T11:52:03.390Z,24.90
2022-08-22T11:53:04.524Z,24.90
2022-08-22T11:54:02.680Z,24.90
2022-08-22T11:55:02.659Z,24.90
2022-08-22T11:56:05.380Z,25.00
2022-08-22T11:57:02.837Z,25.00
2022-08-22T11:58:03.032Z,25.00
2022-08-22T11:59:03.158Z,25.10
2022-08-22T12:00:03.219Z,25.10
2022-08-22T12:01:03.382Z,25.10
2022-08-22T12:02:03.886Z,25.10
2022-08-22T12:03:03.381Z,25.20
2022-08-22T12:04:03.616Z,25.20
2022-08-22T12:05:03.358Z,25.20
2022-08-22T12:06:03.462Z,25.30
2022-08-22T12:07:03.459Z,25.30
2022-08-22T12:08:03.559Z,25.30
2022-08-22T12:09:03.541Z,25.30
2022-08-22T12:10:03.543Z,25.30
2022-08-22T12:11:02.646Z,25.30
2022-08-22T12:12:04.627Z,25.30
2022-08-22T12:13:02.786Z,25.30
2022-08-22T12:14:06.580Z,25.30
2022-08-22T12:15:03.162Z,25.30
2022-08-22T12:16:03.042Z,25.30
2022-08-22T12:17:03.233Z,25.30
2022-08-22T12:18:03.212Z,25.30
2022-08-22T12:19:03.177Z,25.30
2022-08-22T12:20:16.678Z,25.30
2022-08-22T12:21:03.238Z,25.30
2022-08-22T12:22:03.341Z,25.30
2022-08-22T12:23:03.270Z,25.30
2022-08-22T12:24:05.873Z,25.30
2022-08-22T12:25:03.385Z,25.30
2022-08-22T12:26:03.381Z,25.30
2022-08-22T12:27:06.460Z,25.30
2022-08-22T12:28:03.609Z,25.30
2022-08-22T12:29:03.561Z,25.40
2022-08-22T12:30:03.612Z,25.40
2022-08-22T12:31:03.585Z,25.40
2022-08-22T12:32:03.680Z,25.40
2022-08-22T12:33:02.659Z,25.40
2022-08-22T12:34:02.697Z,25.30
2022-08-22T12:35:02.850Z,25.30
2022-08-22T12:36:02.761Z,25.30
2022-08-22T12:37:02.884Z,25.30
2022-08-22T12:38:02.942Z,25.30
2022-08-22T12:39:03.153Z,25.30
2022-08-22T12:40:03.217Z,25.30
2022-08-22T12:41:03.145Z,25.30
2022-08-22T12:42:04.058Z,25.30
2022-08-22T12:43:03.234Z,25.30
2022-08-22T12:44:03.214Z,25.30
2022-08-22T12:45:03.404Z,25.30
2022-08-22T12:46:03.385Z,25.30
2022-08-22T12:47:04.183Z,25.30
2022-08-22T12:48:03.402Z,25.30
2022-08-22T12:49:07.443Z,25.30
2022-08-22T12:50:03.417Z,25.30
2022-08-22T12:51:03.418Z,25.30
2022-08-22T12:52:04.132Z,25.20